sensor_id;sensor_type;location;lat;lon;timestamp;pressure;altitude;pressure_sealevel;temperature;humidity
70206;BME280;57593;55.896;37.396;2023-03-24T00:00:13;98077.66;;;9.41;100.00
70206;BME280;57593;55.896;37.396;2023-03-24T00:00:44;98075.13;;;9.25;100.00
70206;BME280;57593;55.896;37.396;2023-03-24T00:01:16;98074.31;;;9.21;100.00
70206;BME280;57593;55.896;37.396;2023-03-24T00:01:47;98078.94;;;9.28;100.00
70206;BME280;57593;55.896;37.396;2023-03-24T00:02:18;98082.31;;;9.28;100.00
70206;BME280;57593;55.896;37.396;2023-03-24T00:02:50;98076.06;;;9.37;100.00
70206;BME280;57593;55.896;37.396;2023-03-24T00:03:21;98080.56;;;9.36;100.00
70206;BME280;57593;55.896;37.396;2023-03-24T00:03:54;98085.47;;;9.38;100.00
70206;BME280;57593;55.896;37.396;2023-03-24T00:04:25;98082.41;;;9.32;100.00
70206;BME280;57593;55.896;37.396;2023-03-24T00:04:56;98082.44;;;9.35;100.00
70206;BME280;57593;55.896;37.396;2023-03-24T00:05:27;98080.53;;;9.32;100.00
70206;BME280;57593;55.896;37.396;2023-03-24T00:06:02;98079.41;;;9.33;100.00
70206;BME280;57593;55.896;37.396;2023-03-24T00:06:33;98077.50;;;9.30;100.00
70206;BME280;57593;55.896;37.396;2023-03-24T00:07:06;98077.00;;;9.25;100.00
70206;BME280;57593;55.896;37.396;2023-03-24T00:07:38;98082.31;;;9.28;100.00
70206;BME280;57593;55.896;37.396;2023-03-24T00:08:09;98074.31;;;9.21;100.00
70206;BME280;57593;55.896;37.396;2023-03-24T00:08:40;98074.31;;;9.21;100.00
70206;BME280;57593;55.896;37.396;2023-03-24T00:09:13;98074.72;;;9.23;100.00
70206;BME280;57593;55.896;37.396;2023-03-24T00:09:44;98069.84;;;9.25;100.00
70206;BME280;57593;55.896;37.396;2023-03-24T00:10:17;98070.63;;;9.26;100.00
70206;BME280;57593;55.896;37.396;2023-03-24T00:10:49;98067.28;;;9.29;100.00
70206;BME280;57593;55.896;37.396;2023-03-24T00:11:20;98066.16;;;9.30;100.00
70206;BME280;57593;55.896;37.396;2023-03-24T00:11:51;98064.66;;;9.29;100.00
70206;BME280;57593;55.896;37.396;2023-03-24T00:12:21;98065.88;;;9.35;100.00
70206;BME280;57593;55.896;37.396;2023-03-24T00:12:52;98063.53;;;9.30;100.00
70206;BME280;57593;55.896;37.396;2023-03-24T00:13:22;98065.81;;;9.31;100.00
70206;BME280;57593;55.896;37.396;2023-03-24T00:13:53;98058.34;;;9.33;100.00
70206;BME280;57593;55.896;37.396;2023-03-24T00:14:27;98069.66;;;9.38;100.00
70206;BME280;57593;55.896;37.396;2023-03-24T00:14:59;98064.00;;;9.35;100.00
70206;BME280;57593;55.896;37.396;2023-03-24T00:15:31;98060.34;;;9.44;100.00
70206;BME280;57593;55.896;37.396;2023-03-24T00:16:08;98049.78;;;9.40;100.00
70206;BME280;57593;55.896;37.396;2023-03-24T00:16:41;98053.50;;;9.39;100.00
70206;BME280;57593;55.896;37.396;2023-03-24T00:17:12;98052.06;;;9.42;100.00
70206;BME280;57593;55.896;37.396;2023-03-24T00:17:44;98059.13;;;9.38;100.00
70206;BME280;57593;55.896;37.396;2023-03-24T00:18:16;98051.22;;;9.38;100.00
70206;BME280;57593;55.896;37.396;2023-03-24T00:18:47;98052.06;;;9.42;100.00
70206;BME280;57593;55.896;37.396;2023-03-24T00:19:22;98051.34;;;9.45;100.00
70206;BME280;57593;55.896;37.396;2023-03-24T00:19:53;98052.88;;;9.46;100.00
70206;BME280;57593;55.896;37.396;2023-03-24T00:20:25;98051.66;;;9.40;100.00
70206;BME280;57593;55.896;37.396;2023-03-24T00:20:56;98060.66;;;9.39;100.00
70206;BME280;57593;55.896;37.396;2023-03-24T00:21:27;98047.44;;;9.35;100.00
70206;BME280;57593;55.896;37.396;2023-03-24T00:21:59;98048.19;;;9.35;100.00
70206;BME280;57593;55.896;37.396;2023-03-24T00:22:30;98044.91;;;9.42;100.00
70206;BME280;57593;55.896;37.396;2023-03-24T00:23:00;98041.19;;;9.47;100.00
70206;BME280;57593;55.896;37.396;2023-03-24T00:23:32;98045.41;;;9.51;100.00
70206;BME280;57593;55.896;37.396;2023-03-24T00:24:04;98040.06;;;9.44;100.00
70206;BME280;57593;55.896;37.396;2023-03-24T00:24:36;98041.97;;;9.47;100.00
70206;BME280;57593;55.896;37.396;2023-03-24T00:25:09;98046.59;;;9.54;100.00
70206;BME280;57593;55.896;37.396;2023-03-24T00:25:40;98045.75;;;9.50;100.00
70206;BME280;57593;55.896;37.396;2023-03-24T00:26:12;98041.66;;;9.52;100.00
70206;BME280;57593;55.896;37.396;2023-03-24T00:26:46;98046.94;;;9.52;100.00
70206;BME280;57593;55.896;37.396;2023-03-24T00:27:18;98046.38;;;9.40;100.00
70206;BME280;57593;55.896;37.396;2023-03-24T00:27:49;98042.88;;;9.59;100.00
70206;BME280;57593;55.896;37.396;2023-03-24T00:28:20;98041.41;;;9.61;100.00
70206;BME280;57593;55.896;37.396;2023-03-24T00:28:51;98037.50;;;9.51;100.00
70206;BME280;57593;55.896;37.396;2023-03-24T00:29:23;98042.41;;;9.53;100.00
70206;BME280;57593;55.896;37.396;2023-03-24T00:29:55;98040.44;;;9.46;100.00
70206;BME280;57593;55.896;37.396;2023-03-24T00:30:28;98044.34;;;9.56;100.00
70206;BME280;57593;55.896;37.396;2023-03-24T00:31:00;98044.09;;;9.65;100.00
70206;BME280;57593;55.896;37.396;2023-03-24T00:31:33;98046.31;;;9.63;100.00
70206;BME280;57593;55.896;37.396;2023-03-24T00:32:09;98045.16;;;9.60;100.00
70206;BME280;57593;55.896;37.396;2023-03-24T00:32:39;98050.09;;;9.62;100.00
70206;BME280;57593;55.896;37.396;2023-03-24T00:33:10;98059.81;;;9.58;100.00
70206;BME280;57593;55.896;37.396;2023-03-24T00:33:42;98059.66;;;9.47;100.00
70206;BME280;57593;55.896;37.396;2023-03-24T00:34:13;98060.00;;;9.45;100.00
70206;BME280;57593;55.896;37.396;2023-03-24T00:34:44;98057.53;;;9.56;100.00
70206;BME280;57593;55.896;37.396;2023-03-24T00:35:15;98057.53;;;9.56;100.00
70206;BME280;57593;55.896;37.396;2023-03-24T00:35:48;98055.25;;;9.54;100.00
70206;BME280;57593;55.896;37.396;2023-03-24T00:36:20;98049.47;;;9.45;100.00
70206;BME280;57593;55.896;37.396;2023-03-24T00:36:52;98055.16;;;9.47;100.00
70206;BME280;57593;55.896;37.396;2023-03-24T00:37:23;98045.41;;;9.51;100.00
70206;BME280;57593;55.896;37.396;2023-03-24T00:37:54;98058.59;;;9.51;100.00
70206;BME280;57593;55.896;37.396;2023-03-24T00:38:24;98051.16;;;9.57;100.00
70206;BME280;57593;55.896;37.396;2023-03-24T00:38:56;98052.25;;;9.56;100.00
70206;BME280;57593;55.896;37.396;2023-03-24T00:39:27;98055.28;;;9.58;100.00
70206;BME280;57593;55.896;37.396;2023-03-24T00:39:58;98059.47;;;9.59;100.00
70206;BME280;57593;55.896;37.396;2023-03-24T00:40:29;98054.22;;;9.63;100.00
70206;BME280;57593;55.896;37.396;2023-03-24T00:41:04;98065.13;;;9.61;100.00
70206;BME280;57593;55.896;37.396;2023-03-24T00:41:35;98055.75;;;9.64;100.00
70206;BME280;57593;55.896;37.396;2023-03-24T00:42:06;98047.88;;;9.67;100.00
70206;BME280;57593;55.896;37.396;2023-03-24T00:42:38;98044.81;;;9.62;100.00
70206;BME280;57593;55.896;37.396;2023-03-24T00:43:09;98054.66;;;9.65;100.00
70206;BME280;57593;55.896;37.396;2023-03-24T00:43:40;98047.81;;;9.60;100.00
70206;BME280;57593;55.896;37.396;2023-03-24T00:44:14;98049.38;;;9.65;100.00
70206;BME280;57593;55.896;37.396;2023-03-24T00:44:47;98053.47;;;9.62;100.00
70206;BME280;57593;55.896;37.396;2023-03-24T00:45:20;98061.28;;;9.55;100.00
70206;BME280;57593;55.896;37.396;2023-03-24T00:45:59;98058.53;;;9.48;100.00
70206;BME280;57593;55.896;37.396;2023-03-24T00:46:31;98060.06;;;9.49;100.00
70206;BME280;57593;55.896;37.396;2023-03-24T00:47:03;98051.84;;;9.54;100.00
70206;BME280;57593;55.896;37.396;2023-03-24T00:47:34;98045.53;;;9.59;100.00
70206;BME280;57593;55.896;37.396;2023-03-24T00:48:15;98045.59;;;9.66;100.00
70206;BME280;57593;55.896;37.396;2023-03-24T00:48:49;98047.38;;;9.58;100.00
70206;BME280;57593;55.896;37.396;2023-03-24T00:49:32;98036.47;;;9.60;100.00
70206;BME280;57593;55.896;37.396;2023-03-24T00:50:14;98040.59;;;9.57;100.00
70206;BME280;57593;55.896;37.396;2023-03-24T00:50:47;98043.53;;;9.52;100.00
70206;BME280;57593;55.896;37.396;2023-03-24T00:51:18;98044.75;;;9.58;100.00
70206;BME280;57593;55.896;37.396;2023-03-24T00:51:49;98049.72;;;9.63;100.00
70206;BME280;57593;55.896;37.396;2023-03-24T00:52:22;98041.41;;;9.61;100.00
70206;BME280;57593;55.896;37.396;2023-03-24T00:52:55;98044.16;;;9.68;100.00
70206;BME280;57593;55.896;37.396;2023-03-24T00:53:28;98039.94;;;9.64;100.00
70206;BME280;57593;55.896;37.396;2023-03-24T00:53:59;98035.34;;;9.57;100.00
70206;BME280;57593;55.896;37.396;2023-03-24T00:54:31;98039.44;;;9.54;100.00
70206;BME280;57593;55.896;37.396;2023-03-24T00:55:04;98037.97;;;9.57;100.00
70206;BME280;57593;55.896;37.396;2023-03-24T00:55:35;98033.81;;;9.56;100.00
70206;BME280;57593;55.896;37.396;2023-03-24T00:56:07;98033.81;;;9.56;100.00
70206;BME280;57593;55.896;37.396;2023-03-24T00:56:39;98030.94;;;9.65;100.00
70206;BME280;57593;55.896;37.396;2023-03-24T00:57:10;98030.06;;;9.57;100.00
70206;BME280;57593;55.896;37.396;2023-03-24T00:57:44;98035.34;;;9.57;100.00
70206;BME280;57593;55.896;37.396;2023-03-24T00:58:21;98031.53;;;9.54;100.00
70206;BME280;57593;55.896;37.396;2023-03-24T00:58:53;98028.88;;;9.54;100.00
70206;BME280;57593;55.896;37.396;2023-03-24T00:59:27;98028.84;;;9.51;100.00
70206;BME280;57593;55.896;37.396;2023-03-24T01:00:04;98028.53;;;9.56;100.00
70206;BME280;57593;55.896;37.396;2023-03-24T01:00:55;98022.50;;;9.56;100.00
70206;BME280;57593;55.896;37.396;2023-03-24T01:01:27;98027.34;;;9.53;100.00
70206;BME280;57593;55.896;37.396;2023-03-24T01:01:58;98033.34;;;9.50;100.00
70206;BME280;57593;55.896;37.396;2023-03-24T01:02:29;98024.72;;;9.53;100.00
70206;BME280;57593;55.896;37.396;2023-03-24T01:03:00;98019.53;;;9.57;100.00
70206;BME280;57593;55.896;37.396;2023-03-24T01:03:32;98017.94;;;9.52;100.00
70206;BME280;57593;55.896;37.396;2023-03-24T01:04:04;98021.44;;;9.60;100.00
70206;BME280;57593;55.896;37.396;2023-03-24T01:04:35;98024.84;;;9.61;100.00
70206;BME280;57593;55.896;37.396;2023-03-24T01:05:06;98030.09;;;9.61;100.00
70206;BME280;57593;55.896;37.396;2023-03-24T01:05:38;98025.66;;;9.65;100.00
70206;BME280;57593;55.896;37.396;2023-03-24T01:06:10;98015.03;;;9.61;100.00
70206;BME280;57593;55.896;37.396;2023-03-24T01:06:41;98022.16;;;9.57;100.00
70206;BME280;57593;55.896;37.396;2023-03-24T01:07:13;98019.56;;;9.61;100.00
70206;BME280;57593;55.896;37.396;2023-03-24T01:07:48;98025.94;;;9.60;100.00
70206;BME280;57593;55.896;37.396;2023-03-24T01:08:21;98022.59;;;9.63;100.00
70206;BME280;57593;55.896;37.396;2023-03-24T01:08:52;98022.25;;;9.64;100.00
70206;BME280;57593;55.896;37.396;2023-03-24T01:09:23;98025.34;;;9.70;100.00
70206;BME280;57593;55.896;37.396;2023-03-24T01:09:55;98016.22;;;9.64;100.00
70206;BME280;57593;55.896;37.396;2023-03-24T01:10:29;98011.66;;;9.61;100.00
70206;BME280;57593;55.896;37.396;2023-03-24T01:10:59;98014.69;;;9.63;100.00
70206;BME280;57593;55.896;37.396;2023-03-24T01:11:37;98015.47;;;9.63;100.00
70206;BME280;57593;55.896;37.396;2023-03-24T01:12:09;98019.31;;;9.69;100.00
70206;BME280;57593;55.896;37.396;2023-03-24T01:12:39;98009.50;;;9.70;100.00
70206;BME280;57593;55.896;37.396;2023-03-24T01:13:10;98020.88;;;9.74;100.00
70206;BME280;57593;55.896;37.396;2023-03-24T01:13:41;98016.00;;;9.76;100.00
70206;BME280;57593;55.896;37.396;2023-03-24T01:14:12;98015.97;;;9.73;100.00
70206;BME280;57593;55.896;37.396;2023-03-24T01:14:43;98017.03;;;9.68;100.00
70206;BME280;57593;55.896;37.396;2023-03-24T01:15:17;98010.38;;;9.78;100.00
70206;BME280;57593;55.896;37.396;2023-03-24T01:15:49;98020.16;;;9.77;100.00
70206;BME280;57593;55.896;37.396;2023-03-24T01:16:20;98007.13;;;9.88;100.00
70206;BME280;57593;55.896;37.396;2023-03-24T01:16:54;98001.38;;;9.82;100.00
70206;BME280;57593;55.896;37.396;2023-03-24T01:17:25;98009.66;;;9.81;100.00
70206;BME280;57593;55.896;37.396;2023-03-24T01:17:56;98009.69;;;9.84;100.00
70206;BME280;57593;55.896;37.396;2023-03-24T01:18:27;98010.53;;;9.92;100.00
70206;BME280;57593;55.896;37.396;2023-03-24T01:18:57;98013.50;;;9.87;100.00
70206;BME280;57593;55.896;37.396;2023-03-24T01:19:29;98013.41;;;9.80;100.00
70206;BME280;57593;55.896;37.396;2023-03-24T01:20:02;98008.09;;;9.76;100.00
70206;BME280;57593;55.896;37.396;2023-03-24T01:20:38;98008.09;;;9.76;100.00
70206;BME280;57593;55.896;37.396;2023-03-24T01:21:11;98010.34;;;9.74;100.00
70206;BME280;57593;55.896;37.396;2023-03-24T01:21:42;98010.38;;;9.78;100.00
70206;BME280;57593;55.896;37.396;2023-03-24T01:22:13;98005.19;;;9.85;100.00
70206;BME280;57593;55.896;37.396;2023-03-24T01:22:44;98007.88;;;9.88;100.00
70206;BME280;57593;55.896;37.396;2023-03-24T01:23:20;98005.13;;;9.81;100.00
70206;BME280;57593;55.896;37.396;2023-03-24T01:23:52;98009.31;;;9.82;100.00
70206;BME280;57593;55.896;37.396;2023-03-24T01:24:23;98010.13;;;9.86;100.00
70206;BME280;57593;55.896;37.396;2023-03-24T01:24:55;98007.41;;;9.83;100.00
70206;BME280;57593;55.896;37.396;2023-03-24T01:25:26;98009.63;;;9.77;100.00
70206;BME280;57593;55.896;37.396;2023-03-24T01:25:57;98004.28;;;9.74;100.00
70206;BME280;57593;55.896;37.396;2023-03-24T01:26:28;97996.44;;;9.77;100.00
70206;BME280;57593;55.896;37.396;2023-03-24T01:26:59;97993.47;;;9.82;100.00
70206;BME280;57593;55.896;37.396;2023-03-24T01:27:50;97989.25;;;9.74;100.00
70206;BME280;57593;55.896;37.396;2023-03-24T01:28:23;97999.00;;;9.74;100.00
70206;BME280;57593;55.896;37.396;2023-03-24T01:28:55;97994.56;;;9.78;100.00
70206;BME280;57593;55.896;37.396;2023-03-24T01:29:26;97996.78;;;9.76;100.00
70206;BME280;57593;55.896;37.396;2023-03-24T01:30:00;97999.81;;;9.78;100.00
70206;BME280;57593;55.896;37.396;2023-03-24T01:30:31;97990.31;;;9.69;100.00
70206;BME280;57593;55.896;37.396;2023-03-24T01:31:02;97993.66;;;9.66;100.00
70206;BME280;57593;55.896;37.396;2023-03-24T01:31:33;97990.38;;;9.77;100.00
70206;BME280;57593;55.896;37.396;2023-03-24T01:32:04;97994.22;;;9.83;100.00
70206;BME280;57593;55.896;37.396;2023-03-24T01:32:36;97995.78;;;9.87;100.00
70206;BME280;57593;55.896;37.396;2023-03-24T01:33:07;97995.00;;;9.83;100.00
70206;BME280;57593;55.896;37.396;2023-03-24T01:33:37;97995.44;;;9.89;100.00
70206;BME280;57593;55.896;37.396;2023-03-24T01:34:08;97992.44;;;9.90;100.00
70206;BME280;57593;55.896;37.396;2023-03-24T01:34:39;97993.94;;;9.88;100.00
70206;BME280;57593;55.896;37.396;2023-03-24T01:35:10;97987.94;;;9.91;100.00
70206;BME280;57593;55.896;37.396;2023-03-24T01:35:41;97985.31;;;9.91;100.00
70206;BME280;57593;55.896;37.396;2023-03-24T01:36:12;97987.88;;;9.87;100.00
70206;BME280;57593;55.896;37.396;2023-03-24T01:36:42;97992.88;;;9.93;100.00
70206;BME280;57593;55.896;37.396;2023-03-24T01:37:13;97986.78;;;9.88;100.00
70206;BME280;57593;55.896;37.396;2023-03-24T01:37:44;97989.09;;;9.94;100.00
70206;BME280;57593;55.896;37.396;2023-03-24T01:38:15;97986.38;;;9.86;100.00
70206;BME280;57593;55.896;37.396;2023-03-24T01:38:46;97985.34;;;9.95;100.00
70206;BME280;57593;55.896;37.396;2023-03-24T01:39:16;97987.53;;;9.89;100.00
70206;BME280;57593;55.896;37.396;2023-03-24T01:39:47;97981.81;;;9.83;100.00
70206;BME280;57593;55.896;37.396;2023-03-24T01:40:20;97975.00;;;9.79;100.00
70206;BME280;57593;55.896;37.396;2023-03-24T01:40:51;97985.13;;;9.77;100.00
70206;BME280;57593;55.896;37.396;2023-03-24T01:41:26;97985.53;;;9.79;100.00
70206;BME280;57593;55.896;37.396;2023-03-24T01:41:59;97981.69;;;9.73;100.00
70206;BME280;57593;55.896;37.396;2023-03-24T01:42:30;97986.50;;;9.67;100.00
70206;BME280;57593;55.896;37.396;2023-03-24T01:43:01;97988.78;;;9.68;100.00
70206;BME280;57593;55.896;37.396;2023-03-24T01:43:34;97990.03;;;9.78;100.00
70206;BME280;57593;55.896;37.396;2023-03-24T01:44:31;97985.97;;;9.84;100.00
70206;BME280;57593;55.896;37.396;2023-03-24T01:46:18;97978.00;;;9.81;100.00
70206;BME280;57593;55.896;37.396;2023-03-24T01:46:49;97984.03;;;9.81;100.00
70206;BME280;57593;55.896;37.396;2023-03-24T01:47:20;97983.28;;;9.81;100.00
70206;BME280;57593;55.896;37.396;2023-03-24T01:47:51;97972.41;;;9.86;100.00
70206;BME280;57593;55.896;37.396;2023-03-24T01:48:33;97976.09;;;9.78;100.00
70206;BME280;57593;55.896;37.396;2023-03-24T01:49:06;97972.66;;;9.74;100.00
70206;BME280;57593;55.896;37.396;2023-03-24T01:49:59;97976.84;;;9.78;100.00
70206;BME280;57593;55.896;37.396;2023-03-24T01:50:34;97975.38;;;9.81;100.00
70206;BME280;57593;55.896;37.396;2023-03-24T01:51:13;97981.00;;;9.79;100.00
70206;BME280;57593;55.896;37.396;2023-03-24T01:51:48;97966.22;;;9.71;100.00
70206;BME280;57593;55.896;37.396;2023-03-24T01:52:23;97971.03;;;9.65;100.00
70206;BME280;57593;55.896;37.396;2023-03-24T01:52:54;97973.69;;;9.65;100.00
70206;BME280;57593;55.896;37.396;2023-03-24T01:53:26;97966.53;;;9.66;100.00
70206;BME280;57593;55.896;37.396;2023-03-24T01:54:19;97970.59;;;9.60;100.00
70206;BME280;57593;55.896;37.396;2023-03-24T01:54:56;97973.88;;;9.53;100.00
70206;BME280;57593;55.896;37.396;2023-03-24T01:55:30;97962.97;;;9.51;100.00
70206;BME280;57593;55.896;37.396;2023-03-24T01:56:02;97975.41;;;9.54;100.00
70206;BME280;57593;55.896;37.396;2023-03-24T01:56:39;97964.59;;;9.63;100.00
70206;BME280;57593;55.896;37.396;2023-03-24T01:57:13;97965.72;;;9.62;100.00
70206;BME280;57593;55.896;37.396;2023-03-24T01:57:50;97969.56;;;9.68;100.00
70206;BME280;57593;55.896;37.396;2023-03-24T01:58:27;97971.03;;;9.65;100.00
70206;BME280;57593;55.896;37.396;2023-03-24T01:59:30;97975.59;;;9.68;100.00
70206;BME280;57593;55.896;37.396;2023-03-24T02:00:28;97967.28;;;9.66;100.00
70206;BME280;57593;55.896;37.396;2023-03-24T02:01:23;97959.75;;;9.65;100.00
70206;BME280;57593;55.896;37.396;2023-03-24T02:02:07;97961.97;;;9.63;100.00
70206;BME280;57593;55.896;37.396;2023-03-24T02:02:54;97956.50;;;9.48;100.00
70206;BME280;57593;55.896;37.396;2023-03-24T02:03:29;97968.53;;;9.46;100.00
70206;BME280;57593;55.896;37.396;2023-03-24T02:04:05;97959.44;;;9.40;100.00
70206;BME280;57593;55.896;37.396;2023-03-24T02:04:40;97962.97;;;9.51;100.00
70206;BME280;57593;55.896;37.396;2023-03-24T02:05:12;97965.31;;;9.60;100.00
70206;BME280;57593;55.896;37.396;2023-03-24T02:05:49;97965.66;;;9.58;100.00
70206;BME280;57593;55.896;37.396;2023-03-24T02:06:21;97959.25;;;9.56;100.00
70206;BME280;57593;55.896;37.396;2023-03-24T02:06:58;97956.28;;;9.61;100.00
70206;BME280;57593;55.896;37.396;2023-03-24T02:07:51;97957.09;;;9.65;100.00
70206;BME280;57593;55.896;37.396;2023-03-24T02:08:52;97968.03;;;9.67;100.00
70206;BME280;57593;55.896;37.396;2023-03-24T02:09:25;97950.69;;;9.66;100.00
70206;BME280;57593;55.896;37.396;2023-03-24T02:09:56;97955.53;;;9.60;100.00
70206;BME280;57593;55.896;37.396;2023-03-24T02:10:29;97955.91;;;9.59;100.00
70206;BME280;57593;55.896;37.396;2023-03-24T02:11:01;97943.84;;;9.58;100.00
70206;BME280;57593;55.896;37.396;2023-03-24T02:11:41;97951.72;;;9.58;100.00
70206;BME280;57593;55.896;37.396;2023-03-24T02:12:12;97963.75;;;9.55;100.00
70206;BME280;57593;55.896;37.396;2023-03-24T02:12:44;97954.69;;;9.52;100.00
70206;BME280;57593;55.896;37.396;2023-03-24T02:13:16;97957.75;;;9.58;100.00
70206;BME280;57593;55.896;37.396;2023-03-24T02:13:47;97956.75;;;9.66;100.00
70206;BME280;57593;55.896;37.396;2023-03-24T02:14:18;97960.13;;;9.67;100.00
70206;BME280;57593;55.896;37.396;2023-03-24T02:14:49;97954.91;;;9.70;100.00
70206;BME280;57593;55.896;37.396;2023-03-24T02:15:21;97957.63;;;9.78;100.00
70206;BME280;57593;55.896;37.396;2023-03-24T02:17:26;97954.97;;;9.74;100.00
70206;BME280;57593;55.896;37.396;2023-03-24T02:18:52;97950.41;;;9.71;100.00
70206;BME280;57593;55.896;37.396;2023-03-24T02:24:49;97951.28;;;9.52;100.00
70206;BME280;57593;55.896;37.396;2023-03-24T02:29:58;97938.38;;;9.43;100.00
70206;BME280;57593;55.896;37.396;2023-03-24T02:35:56;97939.50;;;9.42;100.00
70206;BME280;57593;55.896;37.396;2023-03-24T02:40:47;97935.09;;;9.23;100.00
70206;BME280;57593;55.896;37.396;2023-03-24T02:44:33;97924.03;;;9.41;100.00
70206;BME280;57593;55.896;37.396;2023-03-24T02:46:55;97924.69;;;9.34;100.00
70206;BME280;57593;55.896;37.396;2023-03-24T02:47:56;97928.16;;;9.38;100.00
70206;BME280;57593;55.896;37.396;2023-03-24T02:49:27;97927.81;;;9.40;100.00
70206;BME280;57593;55.896;37.396;2023-03-24T02:50:50;97923.28;;;9.40;100.00
70206;BME280;57593;55.896;37.396;2023-03-24T02:51:33;97915.78;;;9.42;100.00
70206;BME280;57593;55.896;37.396;2023-03-24T02:52:17;97927.81;;;9.40;100.00
70206;BME280;57593;55.896;37.396;2023-03-24T02:53:07;97921.09;;;9.46;100.00
70206;BME280;57593;55.896;37.396;2023-03-24T02:54:16;97918.75;;;9.41;100.00
70206;BME280;57593;55.896;37.396;2023-03-24T02:54:54;97916.75;;;9.30;100.00
70206;BME280;57593;55.896;37.396;2023-03-24T02:55:33;97914.84;;;9.27;100.00
70206;BME280;57593;55.896;37.396;2023-03-24T02:56:24;97917.84;;;9.26;100.00
70206;BME280;57593;55.896;37.396;2023-03-24T02:58:51;97920.19;;;9.34;100.00
70206;BME280;57593;55.896;37.396;2023-03-24T02:59:42;97920.03;;;9.24;100.00
70206;BME280;57593;55.896;37.396;2023-03-24T03:00:39;97916.25;;;9.21;100.00
70206;BME280;57593;55.896;37.396;2023-03-24T03:01:24;97918.19;;;9.24;100.00
70206;BME280;57593;55.896;37.396;2023-03-24T03:02:26;97912.09;;;9.20;100.00
70206;BME280;57593;55.896;37.396;2023-03-24T03:03:18;97914.84;;;9.27;100.00
70206;BME280;57593;55.896;37.396;2023-03-24T03:04:02;97917.06;;;9.25;100.00
70206;BME280;57593;55.896;37.396;2023-03-24T03:04:44;97918.34;;;9.35;100.00
70206;BME280;57593;55.896;37.396;2023-03-24T03:05:38;97917.28;;;9.43;100.00
70206;BME280;57593;55.896;37.396;2023-03-24T03:06:22;97909.75;;;9.42;100.00
70206;BME280;57593;55.896;37.396;2023-03-24T03:06:56;97912.88;;;9.51;100.00
70206;BME280;57593;55.896;37.396;2023-03-24T03:07:30;97915.78;;;9.42;100.00
70206;BME280;57593;55.896;37.396;2023-03-24T03:08:05;97918.75;;;9.41;100.00
70206;BME280;57593;55.896;37.396;2023-03-24T03:08:37;97920.31;;;9.45;100.00
70206;BME280;57593;55.896;37.396;2023-03-24T03:09:12;97912.75;;;9.40;100.00
70206;BME280;57593;55.896;37.396;2023-03-24T03:09:49;97910.50;;;9.42;100.00
70206;BME280;57593;55.896;37.396;2023-03-24T03:10:28;97915.38;;;9.40;100.00
70206;BME280;57593;55.896;37.396;2023-03-24T03:11:02;97921.09;;;9.46;100.00
70206;BME280;57593;55.896;37.396;2023-03-24T03:11:36;97910.22;;;9.47;100.00
70206;BME280;57593;55.896;37.396;2023-03-24T03:12:10;97905.28;;;9.46;100.00
70206;BME280;57593;55.896;37.396;2023-03-24T03:12:45;97903.75;;;9.45;100.00
70206;BME280;57593;55.896;37.396;2023-03-24T03:13:39;97908.81;;;9.57;100.00
70206;BME280;57593;55.896;37.396;2023-03-24T03:15:02;97906.94;;;9.58;100.00
70206;BME280;57593;55.896;37.396;2023-03-24T03:15:39;97909.66;;;9.65;100.00
70206;BME280;57593;55.896;37.396;2023-03-24T03:16:20;97902.00;;;9.56;100.00
70206;BME280;57593;55.896;37.396;2023-03-24T03:17:05;97905.47;;;9.60;100.00
70206;BME280;57593;55.896;37.396;2023-03-24T03:17:41;97899.88;;;9.65;100.00
70206;BME280;57593;55.896;37.396;2023-03-24T03:18:17;97908.50;;;9.62;100.00
70206;BME280;57593;55.896;37.396;2023-03-24T03:18:57;97904.75;;;9.63;100.00
70206;BME280;57593;55.896;37.396;2023-03-24T03:19:40;97909.53;;;9.54;100.00
70206;BME280;57593;55.896;37.396;2023-03-24T03:20:19;97902.09;;;9.63;100.00
70206;BME280;57593;55.896;37.396;2023-03-24T03:20:57;97906.22;;;9.61;100.00
70206;BME280;57593;55.896;37.396;2023-03-24T03:21:33;97891.50;;;9.60;100.00
70206;BME280;57593;55.896;37.396;2023-03-24T03:22:11;97894.09;;;9.56;100.00
70206;BME280;57593;55.896;37.396;2023-03-24T03:22:48;97888.47;;;9.58;100.00
70206;BME280;57593;55.896;37.396;2023-03-24T03:23:28;97901.63;;;9.54;100.00
70206;BME280;57593;55.896;37.396;2023-03-24T03:24:31;97891.50;;;9.60;100.00
70206;BME280;57593;55.896;37.396;2023-03-24T03:25:01;97880.97;;;9.60;100.00
70206;BME280;57593;55.896;37.396;2023-03-24T03:25:36;97894.06;;;9.52;100.00
70206;BME280;57593;55.896;37.396;2023-03-24T03:26:15;97891.75;;;9.47;100.00
70206;BME280;57593;55.896;37.396;2023-03-24T03:26:49;97891.00;;;9.50;100.00
70206;BME280;57593;55.896;37.396;2023-03-24T03:27:23;97884.25;;;9.49;100.00
70206;BME280;57593;55.896;37.396;2023-03-24T03:27:59;97879.69;;;9.46;100.00
70206;BME280;57593;55.896;37.396;2023-03-24T03:28:37;97878.59;;;9.47;100.00
70206;BME280;57593;55.896;37.396;2023-03-24T03:29:14;97889.47;;;9.46;100.00
70206;BME280;57593;55.896;37.396;2023-03-24T03:29:50;97891.06;;;9.54;100.00
70206;BME280;57593;55.896;37.396;2023-03-24T03:30:34;97883.59;;;9.60;100.00
70206;BME280;57593;55.896;37.396;2023-03-24T03:31:10;97880.59;;;9.61;100.00
70206;BME280;57593;55.896;37.396;2023-03-24T03:31:50;97881.09;;;9.70;100.00
70206;BME280;57593;55.896;37.396;2023-03-24T03:32:26;97886.66;;;9.62;100.00
70206;BME280;57593;55.896;37.396;2023-03-24T03:33:04;97884.72;;;9.59;100.00
70206;BME280;57593;55.896;37.396;2023-03-24T03:33:41;97881.38;;;9.62;100.00
70206;BME280;57593;55.896;37.396;2023-03-24T03:34:24;97884.22;;;9.46;100.00
70206;BME280;57593;55.896;37.396;2023-03-24T03:35:09;97891.38;;;9.49;100.00
70206;BME280;57593;55.896;37.396;2023-03-24T03:36:13;97889.47;;;9.46;100.00